Fairview, Texas
Current Conditions -  °F | °C
As of 7:53 AM on Tuesday 27 Jan 2015 (Local Time) from KTKI Reporting Station
Clear Clear  
Wind Chill: 37°   Ceiling: Unl
Heat Index: 40°   Visibility: 10mi
Dew Point: 35°   Wind: 5mph
Humidity: 83%   Direction: 360°N
Pressure: 30.15"   Gusts: NA
Location:  33.202°N, 96.6182°W
Report Text: KTKI 271353Z 36004KT 10SM CLR 04/02 A3015 RMK AO2 SLP220 T00440017
Loading
Personal Weather Stations






























Interactive Weather Map New forecast layout! Learn more

10-Day Weather Forecast

Advertisements
Track Severe Weather on mobile